createdAt,value
2016-05-22T00:00:18.985Z,0
2016-05-22T00:01:18.987Z,0
2016-05-22T00:02:18.849Z,0
2016-05-22T00:03:18.993Z,0
2016-05-22T00:04:18.854Z,0
2016-05-22T00:05:18.857Z,0
2016-05-22T00:06:19.016Z,0
2016-05-22T00:07:19.034Z,0
2016-05-22T00:08:19.038Z,0
2016-05-22T00:09:19.040Z,0
2016-05-22T00:10:19.058Z,0
2016-05-22T00:11:18.984Z,0
2016-05-22T00:12:19.329Z,0
2016-05-22T00:13:19.081Z,0
2016-05-22T00:14:19.835Z,0
2016-05-22T00:15:19.087Z,0
2016-05-22T00:16:18.934Z,0
2016-05-22T00:17:19.092Z,0
2016-05-22T00:18:19.111Z,0
2016-05-22T00:19:18.942Z,0
2016-05-22T00:20:19.116Z,0
2016-05-22T00:21:18.963Z,0
2016-05-22T00:22:18.966Z,0
2016-05-22T00:23:19.140Z,0
2016-05-22T00:24:19.175Z,0
2016-05-22T00:25:19.224Z,0
2016-05-22T00:26:19.163Z,0
2016-05-22T00:27:20.042Z,0
2016-05-22T00:28:19.185Z,0
2016-05-22T00:29:19.188Z,0
2016-05-22T00:30:19.174Z,0
2016-05-22T00:31:19.193Z,0
2016-05-22T00:32:19.196Z,0
2016-05-22T00:33:19.213Z,0
2016-05-22T00:34:19.045Z,0
2016-05-22T00:35:19.204Z,0
2016-05-22T00:36:19.222Z,0
2016-05-22T00:37:19.224Z,64
2016-05-22T00:38:19.071Z,0
2016-05-22T00:39:19.246Z,0
2016-05-22T00:40:19.232Z,0
2016-05-22T00:41:19.251Z,0
2016-05-22T00:42:19.988Z,0
2016-05-22T00:43:19.256Z,0
2016-05-22T00:44:19.260Z,0
2016-05-22T00:45:19.293Z,0
2016-05-22T00:46:19.280Z,0
2016-05-22T00:47:19.143Z,0
2016-05-22T00:48:19.301Z,0
2016-05-22T00:49:19.303Z,0
2016-05-22T00:50:19.306Z,0
2016-05-22T00:51:19.309Z,0
2016-05-22T00:52:19.312Z,0
2016-05-22T00:53:19.174Z,0
2016-05-22T00:54:19.333Z,0
2016-05-22T00:55:19.336Z,0
2016-05-22T00:56:19.338Z,0
2016-05-22T00:57:19.528Z,0
2016-05-22T00:58:19.500Z,0
2016-05-22T00:59:19.222Z,0
2016-05-22T01:00:19.208Z,0
2016-05-22T01:01:19.383Z,0
2016-05-22T01:02:19.385Z,0
2016-05-22T01:03:19.232Z,0
2016-05-22T01:04:19.391Z,0
2016-05-22T01:05:19.253Z,0
2016-05-22T01:06:19.412Z,0
2016-05-22T01:07:19.415Z,0
2016-05-22T01:08:19.433Z,0
2016-05-22T01:09:19.435Z,0
2016-05-22T01:10:19.282Z,0
2016-05-22T01:11:19.301Z,0
2016-05-22T01:12:19.631Z,0
2016-05-22T01:13:19.462Z,0
2016-05-22T01:14:19.465Z,0
2016-05-22T01:15:19.483Z,0
2016-05-22T01:16:19.487Z,0
2016-05-22T01:17:19.489Z,0
2016-05-22T01:18:19.491Z,0
2016-05-22T01:19:19.494Z,0
2016-05-22T01:20:19.497Z,0
2016-05-22T01:21:19.515Z,0
2016-05-22T01:22:19.518Z,0
2016-05-22T01:23:19.364Z,0
2016-05-22T01:24:19.367Z,0
2016-05-22T01:25:19.369Z,0
2016-05-22T01:26:19.544Z,0
2016-05-22T01:27:20.313Z,0
2016-05-22T01:28:19.393Z,0
2016-05-22T01:29:19.552Z,0
2016-05-22T01:30:19.570Z,0
2016-05-22T01:31:19.573Z,0
2016-05-22T01:32:19.419Z,0
2016-05-22T01:33:19.422Z,0
2016-05-22T01:34:19.440Z,0
2016-05-22T01:35:19.615Z,0
2016-05-22T01:36:19.602Z,0
2016-05-22T01:37:19.605Z,0
2016-05-22T01:38:19.607Z,0
2016-05-22T01:39:19.610Z,0
2016-05-22T01:40:19.628Z,0
2016-05-22T01:41:19.476Z,0
2016-05-22T01:42:19.681Z,0
2016-05-22T01:43:19.637Z,0
2016-05-22T01:44:19.654Z,0
2016-05-22T01:45:19.657Z,0
2016-05-22T01:46:19.660Z,0
2016-05-22T01:47:19.523Z,0
2016-05-22T01:48:19.681Z,0
2016-05-22T01:49:19.700Z,0
2016-05-22T01:50:19.687Z,0
2016-05-22T01:51:19.705Z,0
2016-05-22T01:52:19.598Z,0
2016-05-22T01:53:19.772Z,0
2016-05-22T01:54:19.401Z,0
2016-05-22T01:55:19.575Z,0
2016-05-22T01:56:19.719Z,0
2016-05-22T01:57:19.564Z,0
2016-05-22T01:58:20.036Z,0
2016-05-22T01:59:19.758Z,0
2016-05-22T02:00:19.761Z,0
2016-05-22T02:01:19.607Z,0
2016-05-22T02:02:19.766Z,0
2016-05-22T02:03:19.768Z,0
2016-05-22T02:04:19.803Z,0
2016-05-22T02:05:19.790Z,0
2016-05-22T02:06:19.807Z,0
2016-05-22T02:07:19.811Z,0
2016-05-22T02:08:19.344Z,0
2016-05-22T02:09:19.816Z,0
2016-05-22T02:10:19.662Z,0
2016-05-22T02:11:19.821Z,0
2016-05-22T02:12:20.012Z,0
2016-05-22T02:13:19.843Z,0
2016-05-22T02:14:19.845Z,0
2016-05-22T02:15:19.863Z,0
2016-05-22T02:16:19.882Z,0
2016-05-22T02:17:19.868Z,0
2016-05-22T02:18:19.871Z,0
2016-05-22T02:19:19.874Z,0
2016-05-22T02:20:19.893Z,0
2016-05-22T02:21:19.583Z,0
2016-05-22T02:22:19.898Z,0
2016-05-22T02:23:19.916Z,0
2016-05-22T02:24:19.934Z,0
2016-05-22T02:25:19.937Z,0
2016-05-22T02:26:19.768Z,0
2016-05-22T02:27:19.645Z,0
2016-05-22T02:28:19.930Z,0
2016-05-22T02:29:19.792Z,0
2016-05-22T02:30:19.966Z,0
2016-05-22T02:31:19.953Z,0
2016-05-22T02:32:19.972Z,0
2016-05-22T02:33:19.975Z,0
2016-05-22T02:34:19.836Z,0
2016-05-22T02:35:19.980Z,0
2016-05-22T02:36:19.982Z,0
2016-05-22T02:37:19.985Z,0
2016-05-22T02:38:20.004Z,0
2016-05-22T02:39:20.007Z,0
2016-05-22T02:40:20.009Z,0
2016-05-22T02:41:19.715Z,0
2016-05-22T02:42:20.061Z,0
2016-05-22T02:43:19.892Z,0
2016-05-22T02:44:20.034Z,0
2016-05-22T02:45:20.038Z,0
2016-05-22T02:46:19.900Z,0
2016-05-22T02:47:19.903Z,0
2016-05-22T02:48:20.077Z,0
2016-05-22T02:49:20.064Z,0
2016-05-22T02:50:20.082Z,0
2016-05-22T02:51:19.945Z,0
2016-05-22T02:52:20.087Z,0
2016-05-22T02:53:20.106Z,0
2016-05-22T02:54:20.109Z,0
2016-05-22T02:55:20.111Z,0
2016-05-22T02:56:19.958Z,0
2016-05-22T02:57:20.445Z,0
2016-05-22T02:58:20.150Z,0
2016-05-22T02:59:20.138Z,0
2016-05-22T03:00:20.141Z,0
2016-05-22T03:01:20.159Z,0
2016-05-22T03:02:34.255Z,0
2016-05-22T03:03:20.163Z,0
2016-05-22T03:04:20.167Z,4
2016-05-22T03:05:20.169Z,4
2016-05-22T03:06:20.172Z,4
2016-05-22T03:07:20.035Z,4
2016-05-22T03:08:20.038Z,0
2016-05-22T03:09:20.196Z,4
2016-05-22T03:10:20.042Z,4
2016-05-22T03:11:20.217Z,4
2016-05-22T03:12:20.407Z,4
2016-05-22T03:13:20.066Z,4
2016-05-22T03:14:20.068Z,4
2016-05-22T03:15:20.243Z,8
2016-05-22T03:16:20.106Z,4
2016-05-22T03:17:20.092Z,8
2016-05-22T03:18:20.252Z,12
2016-05-22T03:19:20.114Z,8
2016-05-22T03:20:20.273Z,12
2016-05-22T03:21:20.119Z,8
2016-05-22T03:22:20.278Z,12
2016-05-22T03:23:20.140Z,12
2016-05-22T03:24:20.298Z,12
2016-05-22T03:25:20.130Z,16
2016-05-22T03:26:20.148Z,16
2016-05-22T03:27:20.838Z,16
2016-05-22T03:28:20.716Z,16
2016-05-22T03:29:20.188Z,20
2016-05-22T03:30:20.395Z,24
2016-05-22T03:31:20.272Z,28
2016-05-22T03:32:20.307Z,28
2016-05-22T03:33:20.498Z,32
2016-05-22T03:34:20.536Z,36
2016-05-22T03:35:20.550Z,36
2016-05-22T03:36:20.563Z,40
2016-05-22T03:37:20.578Z,44
2016-05-22T03:38:20.591Z,48
2016-05-22T03:39:20.602Z,52
2016-05-22T03:40:20.468Z,52
2016-05-22T03:41:20.475Z,56
2016-05-22T03:42:20.668Z,60
2016-05-22T03:43:20.614Z,64
2016-05-22T03:44:20.650Z,64
2016-05-22T03:45:20.671Z,68
2016-05-22T03:46:20.675Z,72
2016-05-22T03:47:20.522Z,76
2016-05-22T03:48:20.699Z,76
2016-05-22T03:49:20.701Z,84
2016-05-22T03:50:20.705Z,92
2016-05-22T03:51:20.708Z,96
2016-05-22T03:52:20.727Z,100
2016-05-22T03:53:20.730Z,108
2016-05-22T03:54:20.733Z,112
2016-05-22T03:55:20.736Z,116
2016-05-22T03:56:20.753Z,116
2016-05-22T03:57:20.960Z,120
2016-05-22T03:58:21.165Z,128
2016-05-22T03:59:20.761Z,136
2016-05-22T04:00:20.780Z,136
2016-05-22T04:01:20.783Z,132
2016-05-22T04:02:23.629Z,132
2016-05-22T04:03:20.785Z,120
2016-05-22T04:04:20.632Z,116
2016-05-22T04:05:20.821Z,124
2016-05-22T04:06:20.652Z,136
2016-05-22T04:07:20.813Z,152
2016-05-22T04:08:20.674Z,160
2016-05-22T04:09:20.832Z,172
2016-05-22T04:10:20.820Z,180
2016-05-22T04:11:20.838Z,180
2016-05-22T04:12:21.235Z,176
2016-05-22T04:13:21.299Z,176
2016-05-22T04:14:20.846Z,172
2016-05-22T04:15:20.864Z,168
2016-05-22T04:16:20.867Z,168
2016-05-22T04:17:20.901Z,164
2016-05-22T04:18:20.889Z,168
2016-05-22T04:19:20.892Z,176
2016-05-22T04:20:20.895Z,180
2016-05-22T04:21:20.896Z,188
2016-05-22T04:22:20.743Z,208
2016-05-22T04:23:20.917Z,224
2016-05-22T04:24:20.608Z,232
2016-05-22T04:25:20.798Z,236
2016-05-22T04:26:20.942Z,224
2016-05-22T04:27:20.788Z,220
2016-05-22T04:28:21.700Z,228
2016-05-22T04:29:20.950Z,256
2016-05-22T04:30:20.967Z,272
2016-05-22T04:31:21.002Z,280
2016-05-22T04:32:20.972Z,260
2016-05-22T04:33:20.975Z,256
2016-05-22T04:34:20.978Z,244
2016-05-22T04:35:20.855Z,228
2016-05-22T04:36:20.999Z,232
2016-05-22T04:37:21.018Z,244
2016-05-22T04:38:21.021Z,260
2016-05-22T04:39:20.851Z,256
2016-05-22T04:40:21.026Z,252
2016-05-22T04:41:20.871Z,252
2016-05-22T04:42:20.968Z,244
2016-05-22T04:43:21.034Z,232
2016-05-22T04:44:21.052Z,232
2016-05-22T04:45:20.898Z,200
2016-05-22T04:46:20.760Z,172
2016-05-22T04:47:20.904Z,164
2016-05-22T04:48:20.922Z,160
2016-05-22T04:49:21.081Z,160
2016-05-22T04:50:21.084Z,152
2016-05-22T04:51:20.931Z,144
2016-05-22T04:52:21.105Z,140
2016-05-22T04:53:21.092Z,148
2016-05-22T04:54:21.110Z,160
2016-05-22T04:55:21.113Z,172
2016-05-22T04:56:21.131Z,184
2016-05-22T04:57:21.336Z,192
2016-05-22T04:58:20.980Z,196
2016-05-22T04:59:21.186Z,200
2016-05-22T05:00:21.158Z,216
2016-05-22T05:01:21.160Z,232
2016-05-22T05:02:21.022Z,248
2016-05-22T05:03:21.180Z,264
2016-05-22T05:04:21.168Z,260
2016-05-22T05:05:21.030Z,296
2016-05-22T05:06:21.033Z,340
2016-05-22T05:07:21.035Z,380
2016-05-22T05:08:21.194Z,380
2016-05-22T05:09:21.213Z,412
2016-05-22T05:10:21.215Z,452
2016-05-22T05:11:21.235Z,488
2016-05-22T05:12:20.784Z,548
2016-05-22T05:13:21.020Z,620
2016-05-22T05:14:21.242Z,728
2016-05-22T05:15:21.245Z,600
2016-05-22T05:16:21.090Z,632
2016-05-22T05:17:21.266Z,736
2016-05-22T05:18:21.268Z,800
2016-05-22T05:19:21.270Z,908
2016-05-22T05:20:21.289Z,1000
2016-05-22T05:21:21.292Z,1116
2016-05-22T05:22:21.295Z,1196
2016-05-22T05:23:21.314Z,2672
2016-05-22T05:24:21.301Z,3776
2016-05-22T05:25:21.318Z,7596
2016-05-22T05:26:21.321Z,3216
2016-05-22T05:27:21.325Z,1748
2016-05-22T05:28:21.342Z,1456
2016-05-22T05:29:21.345Z,1436
2016-05-22T05:30:21.208Z,1692
2016-05-22T05:31:21.350Z,2416
2016-05-22T05:32:21.352Z,8356
2016-05-22T05:33:21.372Z,8508
2016-05-22T05:34:21.218Z,8872
2016-05-22T05:35:21.377Z,7848
2016-05-22T05:36:21.224Z,8224
2016-05-22T05:37:21.398Z,8536
2016-05-22T05:38:21.400Z,9648
2016-05-22T05:39:21.419Z,10992
2016-05-22T05:40:21.421Z,11044
2016-05-22T05:41:21.424Z,11600
2016-05-22T05:42:21.443Z,12040
2016-05-22T05:43:21.321Z,11928
2016-05-22T05:44:21.448Z,11064
2016-05-22T05:45:21.465Z,8848
2016-05-22T05:46:21.328Z,13056
2016-05-22T05:47:21.487Z,13152
2016-05-22T05:48:21.489Z,9708
2016-05-22T05:49:21.493Z,10320
2016-05-22T05:50:21.339Z,10220
2016-05-22T05:51:21.217Z,8448
2016-05-22T05:52:21.516Z,7800
2016-05-22T05:53:21.363Z,9160
2016-05-22T05:54:21.381Z,10672
2016-05-22T05:55:21.540Z,11860
2016-05-22T05:56:21.558Z,11144
2016-05-22T05:57:21.561Z,10964
2016-05-22T05:58:21.501Z,8432
2016-05-22T05:59:21.581Z,5816
2016-05-22T06:00:21.272Z,5112
2016-05-22T06:01:21.603Z,4084
2016-05-22T06:02:35.717Z,4092
2016-05-22T06:03:21.639Z,3136
2016-05-22T06:04:21.313Z,2232
2016-05-22T06:05:21.630Z,2136
2016-05-22T06:06:21.710Z,2528
2016-05-22T06:07:21.650Z,2168
2016-05-22T06:08:21.513Z,2284
2016-05-22T06:09:21.515Z,2188
2016-05-22T06:10:21.674Z,2360
2016-05-22T06:11:21.693Z,2212
2016-05-22T06:12:21.695Z,1752
2016-05-22T06:13:21.557Z,1756
2016-05-22T06:14:21.716Z,2088
2016-05-22T06:15:21.547Z,2660
2016-05-22T06:16:21.721Z,2208
2016-05-22T06:17:21.584Z,2828
2016-05-22T06:18:21.774Z,3972
2016-05-22T06:19:21.746Z,4580
2016-05-22T06:20:21.592Z,3480
2016-05-22T06:21:21.765Z,3440
2016-05-22T06:22:21.768Z,5084
2016-05-22T06:23:21.771Z,6676
2016-05-22T06:24:21.790Z,10312
2016-05-22T06:25:21.793Z,4668
2016-05-22T06:26:21.639Z,5692
2016-05-22T06:27:21.797Z,13552
2016-05-22T06:28:22.520Z,19424
2016-05-22T06:29:21.819Z,22720
2016-05-22T06:30:21.837Z,20384
2016-05-22T06:31:21.700Z,23392
2016-05-22T06:32:21.859Z,28256
2016-05-22T06:33:21.860Z,29120
2016-05-22T06:34:21.722Z,29248
2016-05-22T06:35:21.882Z,20416
2016-05-22T06:36:21.885Z,10644
2016-05-22T06:37:21.888Z,6728
2016-05-22T06:38:21.921Z,5384
2016-05-22T06:39:21.907Z,4072
2016-05-22T06:40:21.926Z,4404
2016-05-22T06:41:21.929Z,5068
2016-05-22T06:42:21.791Z,3448
2016-05-22T06:43:22.294Z,4704
2016-05-22T06:44:21.953Z,6084
2016-05-22T06:45:21.971Z,6656
2016-05-22T06:46:21.973Z,6168
2016-05-22T06:47:21.821Z,6956
2016-05-22T06:48:21.995Z,9456
2016-05-22T06:49:21.998Z,6484
2016-05-22T06:50:22.016Z,6800
2016-05-22T06:51:22.018Z,3484
2016-05-22T06:52:21.848Z,5032
2016-05-22T06:53:22.039Z,2372
2016-05-22T06:54:22.058Z,2080
2016-05-22T06:55:22.045Z,2816
2016-05-22T06:56:21.907Z,3480
2016-05-22T06:57:21.909Z,3984
2016-05-22T06:58:22.631Z,4796
2016-05-22T06:59:22.087Z,5432
2016-05-22T07:00:22.089Z,5372
2016-05-22T07:01:22.093Z,4100
2016-05-22T07:02:22.111Z,5572
2016-05-22T07:03:22.128Z,7408
2016-05-22T07:04:22.116Z,6216
2016-05-22T07:05:22.134Z,4996
2016-05-22T07:06:22.136Z,6008
2016-05-22T07:07:22.155Z,5012
2016-05-22T07:08:21.986Z,3408
2016-05-22T07:09:21.849Z,3140
2016-05-22T07:10:22.163Z,5160
2016-05-22T07:11:22.025Z,5928
2016-05-22T07:12:22.185Z,6692
2016-05-22T07:13:22.624Z,5004
2016-05-22T07:14:22.205Z,7116
2016-05-22T07:15:22.193Z,7564
2016-05-22T07:16:22.210Z,6580
2016-05-22T07:17:22.229Z,11604
2016-05-22T07:18:22.076Z,4008
2016-05-22T07:19:22.251Z,17600
2016-05-22T07:20:22.253Z,33152
2016-05-22T07:21:22.256Z,5572
2016-05-22T07:22:22.274Z,10156
2016-05-22T07:23:22.277Z,28768
2016-05-22T07:24:22.279Z,10176
2016-05-22T07:25:22.282Z,19776
2016-05-22T07:26:22.285Z,22400
2016-05-22T07:27:22.303Z,24448
2016-05-22T07:28:22.259Z,20032
2016-05-22T07:29:22.167Z,22112
2016-05-22T07:30:22.326Z,20256
2016-05-22T07:31:22.189Z,17152
2016-05-22T07:32:22.348Z,13060
2016-05-22T07:33:22.225Z,14976
2016-05-22T07:34:22.368Z,15860
2016-05-22T07:35:22.371Z,9756
2016-05-22T07:36:22.390Z,6296
2016-05-22T07:37:22.236Z,3960
2016-05-22T07:38:22.395Z,3476
2016-05-22T07:39:22.257Z,3240
2016-05-22T07:40:22.416Z,3116
2016-05-22T07:41:22.434Z,2972
2016-05-22T07:42:22.280Z,2940
2016-05-22T07:43:22.580Z,2804
2016-05-22T07:44:22.286Z,2764
2016-05-22T07:45:22.460Z,2748
2016-05-22T07:46:22.323Z,2752
2016-05-22T07:47:22.481Z,2816
2016-05-22T07:48:22.484Z,2840
2016-05-22T07:49:22.332Z,2868
2016-05-22T07:50:22.505Z,2860
2016-05-22T07:51:22.507Z,2828
2016-05-22T07:52:22.573Z,2840
2016-05-22T07:53:22.576Z,2884
2016-05-22T07:54:22.234Z,2904
2016-05-22T07:55:22.535Z,2892
2016-05-22T07:56:22.553Z,2876
2016-05-22T07:57:22.414Z,2920
2016-05-22T07:58:22.574Z,2932
2016-05-22T07:59:22.420Z,2868
2016-05-22T08:00:22.578Z,2904
2016-05-22T08:01:22.582Z,2960
2016-05-22T08:02:36.697Z,2996
2016-05-22T08:03:22.650Z,2932
2016-05-22T08:04:22.621Z,2816
2016-05-22T08:05:22.609Z,2660
2016-05-22T08:06:22.658Z,2500
2016-05-22T08:07:22.629Z,2580
2016-05-22T08:08:22.647Z,2636
2016-05-22T08:09:22.353Z,2636
2016-05-22T08:10:22.513Z,2624
2016-05-22T08:11:22.516Z,2616
2016-05-22T08:12:22.518Z,2532
2016-05-22T08:13:22.864Z,2488
2016-05-22T08:14:22.538Z,2468
2016-05-22T08:15:22.713Z,2484
2016-05-22T08:16:22.543Z,2520
2016-05-22T08:17:22.718Z,2552
2016-05-22T08:18:22.580Z,2536
2016-05-22T08:19:22.724Z,2588
2016-05-22T08:20:22.601Z,2572
2016-05-22T08:21:22.760Z,2604
2016-05-22T08:22:22.763Z,2612
2016-05-22T08:23:22.782Z,2612
2016-05-22T08:24:22.800Z,2584
2016-05-22T08:25:22.771Z,2560
2016-05-22T08:26:22.790Z,2564
2016-05-22T08:27:22.667Z,2560
2016-05-22T08:28:22.811Z,2548
2016-05-22T08:29:22.814Z,2532
2016-05-22T08:30:22.817Z,2516
2016-05-22T08:31:22.834Z,2516
2016-05-22T08:32:22.837Z,2488
2016-05-22T08:33:22.683Z,2464
2016-05-22T08:34:22.859Z,2472
2016-05-22T08:35:22.705Z,2460
2016-05-22T08:36:22.864Z,2444
2016-05-22T08:37:22.881Z,2448
2016-05-22T08:38:22.728Z,2456
2016-05-22T08:39:22.902Z,2452
2016-05-22T08:40:22.922Z,2440
2016-05-22T08:41:22.924Z,2476
2016-05-22T08:42:22.911Z,2500
2016-05-22T08:43:23.272Z,2496
2016-05-22T08:44:22.775Z,2512
2016-05-22T08:45:22.966Z,2516
2016-05-22T08:46:22.938Z,2496
2016-05-22T08:47:22.955Z,2508
2016-05-22T08:48:22.958Z,2508
2016-05-22T08:49:22.960Z,2500
2016-05-22T08:50:22.979Z,2608
2016-05-22T08:51:22.982Z,2584
2016-05-22T08:52:23.000Z,2636
2016-05-22T08:53:23.018Z,2640
2016-05-22T08:54:23.006Z,2516
2016-05-22T08:55:23.024Z,2336
2016-05-22T08:56:23.026Z,2204
2016-05-22T08:57:23.029Z,2324
2016-05-22T08:58:23.048Z,2496
2016-05-22T08:59:23.050Z,2456
2016-05-22T09:00:23.068Z,2492
2016-05-22T09:01:23.055Z,2548
2016-05-22T09:02:51.264Z,2580
2016-05-22T09:03:23.076Z,2572
2016-05-22T09:04:23.095Z,2476
2016-05-22T09:05:23.097Z,2564
2016-05-22T09:06:22.944Z,2556
2016-05-22T09:07:22.947Z,2536
2016-05-22T09:08:23.106Z,2576
2016-05-22T09:09:23.124Z,2640
2016-05-22T09:10:22.970Z,2656
2016-05-22T09:11:23.145Z,2652
2016-05-22T09:12:23.132Z,2664
2016-05-22T09:13:23.275Z,2692
2016-05-22T09:14:22.997Z,2708
2016-05-22T09:15:23.000Z,2664
2016-05-22T09:16:23.018Z,2640
2016-05-22T09:17:23.192Z,2644
2016-05-22T09:18:23.038Z,2652
2016-05-22T09:19:23.229Z,2620
2016-05-22T09:20:23.201Z,2556
2016-05-22T09:21:23.218Z,2568
2016-05-22T09:22:23.221Z,2540
2016-05-22T09:23:23.255Z,2472
2016-05-22T09:24:23.087Z,2504
2016-05-22T09:25:23.245Z,2488
2016-05-22T09:26:23.263Z,2472
2016-05-22T09:27:23.095Z,2440
2016-05-22T09:28:22.987Z,2360
2016-05-22T09:29:23.271Z,2388
2016-05-22T09:30:23.274Z,2452
2016-05-22T09:31:23.277Z,2444
2016-05-22T09:32:39.845Z,2404
2016-05-22T09:33:23.298Z,2448
2016-05-22T09:34:23.300Z,2456
2016-05-22T09:35:23.162Z,2452
2016-05-22T09:36:23.165Z,2448
2016-05-22T09:37:23.339Z,2396
2016-05-22T09:38:23.342Z,2372
2016-05-22T09:39:23.345Z,2328
2016-05-22T09:40:23.348Z,2304
2016-05-22T09:41:23.366Z,2408
2016-05-22T09:42:23.369Z,2488
2016-05-22T09:43:23.294Z,2452
2016-05-22T09:44:23.405Z,2424
2016-05-22T09:45:23.268Z,2376
2016-05-22T09:46:23.411Z,2340
2016-05-22T09:47:23.414Z,2240
2016-05-22T09:48:23.416Z,2136
2016-05-22T09:49:23.435Z,2032
2016-05-22T09:50:23.282Z,1964
2016-05-22T09:51:23.299Z,2056
2016-05-22T09:52:23.443Z,2204
2016-05-22T09:53:23.305Z,2432
2016-05-22T09:54:23.308Z,2544
2016-05-22T09:55:23.310Z,2656
2016-05-22T09:56:23.329Z,2712
2016-05-22T09:57:23.487Z,2868
2016-05-22T09:58:23.365Z,2936
2016-05-22T09:59:23.509Z,2936
2016-05-22T10:00:23.526Z,2908
2016-05-22T10:01:23.529Z,2760
2016-05-22T10:02:23.532Z,2692
2016-05-22T10:03:23.378Z,2584
2016-05-22T10:04:23.381Z,2428
2016-05-22T10:05:23.556Z,2332
2016-05-22T10:06:23.559Z,2240
2016-05-22T10:07:23.562Z,2260
2016-05-22T10:08:23.564Z,2144
2016-05-22T10:09:23.583Z,2048
2016-05-22T10:10:23.428Z,2248
2016-05-22T10:11:23.588Z,2412
2016-05-22T10:12:23.606Z,2336
2016-05-22T10:13:24.311Z,2388
2016-05-22T10:14:23.627Z,2372
2016-05-22T10:15:23.645Z,2420
2016-05-22T10:16:23.476Z,2324
2016-05-22T10:17:23.636Z,2212
2016-05-22T10:18:23.652Z,2112
2016-05-22T10:19:23.656Z,2100
2016-05-22T10:20:23.502Z,2108
2016-05-22T10:21:23.677Z,2108
2016-05-22T10:22:23.680Z,2180
2016-05-22T10:23:23.541Z,2160
2016-05-22T10:24:23.701Z,2184
2016-05-22T10:25:23.704Z,2064
2016-05-22T10:26:23.706Z,1968
2016-05-22T10:27:23.724Z,1936
2016-05-22T10:28:24.649Z,1932
2016-05-22T10:29:23.745Z,1996
2016-05-22T10:30:23.748Z,1896
2016-05-22T10:31:23.766Z,1912
2016-05-22T10:32:23.770Z,1980
2016-05-22T10:33:23.773Z,2224
2016-05-22T10:34:23.775Z,2384
2016-05-22T10:35:23.621Z,2228
2016-05-22T10:36:23.781Z,2164
2016-05-22T10:37:23.642Z,2116
2016-05-22T10:38:23.489Z,2092
2016-05-22T10:39:23.803Z,2016
2016-05-22T10:40:23.806Z,2040
2016-05-22T10:41:23.840Z,2076
2016-05-22T10:42:23.828Z,2144
2016-05-22T10:43:24.049Z,2636
2016-05-22T10:44:23.848Z,2396
2016-05-22T10:45:23.850Z,2336
2016-05-22T10:46:23.698Z,2644
2016-05-22T10:47:23.871Z,2888
2016-05-22T10:48:23.874Z,2756
2016-05-22T10:49:23.893Z,2780
2016-05-22T10:50:23.896Z,2720
2016-05-22T10:51:23.899Z,2244
2016-05-22T10:52:23.916Z,2228
2016-05-22T10:53:23.919Z,2180
2016-05-22T10:54:23.938Z,2032
2016-05-22T10:55:23.925Z,1956
2016-05-22T10:56:23.772Z,1988
2016-05-22T10:57:23.961Z,2004
2016-05-22T10:58:24.073Z,1968
2016-05-22T10:59:23.873Z,1924
2016-05-22T11:00:23.813Z,1988
2016-05-22T11:01:23.988Z,1864
2016-05-22T11:02:38.087Z,1776
2016-05-22T11:03:23.821Z,1744
2016-05-22T11:04:23.996Z,1632
2016-05-22T11:05:24.015Z,1568
2016-05-22T11:06:24.017Z,1420
2016-05-22T11:07:24.034Z,1256
2016-05-22T11:08:23.725Z,1444
2016-05-22T11:09:24.040Z,1564
2016-05-22T11:10:24.058Z,1472
2016-05-22T11:11:24.062Z,1320
2016-05-22T11:12:24.080Z,1140
2016-05-22T11:13:24.286Z,1000
2016-05-22T11:14:23.928Z,984
2016-05-22T11:15:23.931Z,920
2016-05-22T11:16:24.091Z,916
2016-05-22T11:17:24.109Z,1008
2016-05-22T11:18:24.111Z,1032
2016-05-22T11:19:24.114Z,1080
2016-05-22T11:20:24.116Z,1088
2016-05-22T11:21:24.135Z,1068
2016-05-22T11:22:24.138Z,1036
2016-05-22T11:23:24.016Z,1036
2016-05-22T11:24:23.988Z,1016
2016-05-22T11:25:24.021Z,1072
2016-05-22T11:26:24.165Z,1096
2016-05-22T11:27:24.027Z,1088
2016-05-22T11:28:24.060Z,1088
2016-05-22T11:29:24.204Z,1056
2016-05-22T11:30:24.190Z,1032
2016-05-22T11:31:24.209Z,1076
2016-05-22T11:32:38.309Z,1288
2016-05-22T11:33:24.230Z,1164
2016-05-22T11:34:24.077Z,1248
2016-05-22T11:35:24.079Z,1360
2016-05-22T11:36:24.254Z,1372
2016-05-22T11:37:24.241Z,1308
2016-05-22T11:38:24.259Z,1196
2016-05-22T11:39:24.278Z,1072
2016-05-22T11:40:24.280Z,988
2016-05-22T11:41:24.142Z,916
2016-05-22T11:42:24.286Z,824
2016-05-22T11:43:24.429Z,756
2016-05-22T11:44:24.338Z,712
2016-05-22T11:45:24.356Z,692
2016-05-22T11:46:24.328Z,664
2016-05-22T11:47:24.331Z,636
2016-05-22T11:48:24.333Z,636
2016-05-22T11:49:24.335Z,648
2016-05-22T11:50:24.339Z,652
2016-05-22T11:51:24.200Z,668
2016-05-22T11:52:24.360Z,700
2016-05-22T11:53:24.050Z,740
2016-05-22T11:54:24.208Z,804
2016-05-22T11:55:24.383Z,884
2016-05-22T11:56:24.074Z,928
2016-05-22T11:57:24.404Z,944
2016-05-22T11:58:24.657Z,948
2016-05-22T11:59:24.253Z,940
2016-05-22T12:00:24.115Z,888
2016-05-22T12:01:24.430Z,812
2016-05-22T12:02:24.449Z,836
2016-05-22T12:03:24.452Z,836
2016-05-22T12:04:24.298Z,820
2016-05-22T12:05:24.301Z,820
2016-05-22T12:06:24.318Z,860
2016-05-22T12:07:24.306Z,940
2016-05-22T12:08:24.324Z,904
2016-05-22T12:09:24.326Z,868
2016-05-22T12:10:24.501Z,952
2016-05-22T12:11:24.504Z,1044
2016-05-22T12:12:24.507Z,1164
2016-05-22T12:13:24.776Z,1120
2016-05-22T12:14:24.527Z,1052
2016-05-22T12:15:24.515Z,1108
2016-05-22T12:16:24.377Z,1228
2016-05-22T12:17:24.552Z,1256
2016-05-22T12:18:24.398Z,1180
2016-05-22T12:19:24.557Z,1228
2016-05-22T12:20:24.403Z,1192
2016-05-22T12:21:24.421Z,1116
2016-05-22T12:22:24.580Z,1056
2016-05-22T12:23:24.271Z,1036
2016-05-22T12:24:24.586Z,1044
2016-05-22T12:25:24.589Z,1048
2016-05-22T12:26:24.608Z,1076
2016-05-22T12:27:24.625Z,1088
2016-05-22T12:28:25.190Z,1024
2016-05-22T12:29:24.474Z,1056
2016-05-22T12:30:24.665Z,1032
2016-05-22T12:31:24.651Z,1060
2016-05-22T12:32:24.498Z,1148
2016-05-22T12:33:24.657Z,1264
2016-05-22T12:34:24.675Z,1292
2016-05-22T12:35:24.693Z,1284
2016-05-22T12:36:24.537Z,1300
2016-05-22T12:37:24.733Z,1328
2016-05-22T12:38:24.600Z,1360
2016-05-22T12:39:24.778Z,1392
2016-05-22T12:40:24.800Z,1396
2016-05-22T12:41:24.830Z,1328
2016-05-22T12:42:24.840Z,1260
2016-05-22T12:43:25.350Z,1184
2016-05-22T12:44:24.703Z,1076
2016-05-22T12:45:24.885Z,980
2016-05-22T12:46:24.891Z,908
2016-05-22T12:47:24.897Z,872
2016-05-22T12:48:24.761Z,848
2016-05-22T12:49:24.923Z,796
2016-05-22T12:50:24.943Z,732
2016-05-22T12:51:24.792Z,724
2016-05-22T12:52:24.951Z,724
2016-05-22T12:53:24.955Z,712
2016-05-22T12:54:24.958Z,696
2016-05-22T12:55:24.962Z,708
2016-05-22T12:56:24.980Z,708
2016-05-22T12:57:25.015Z,716
2016-05-22T12:58:25.674Z,716
2016-05-22T12:59:25.005Z,684
2016-05-22T13:00:25.009Z,644
2016-05-22T13:01:25.011Z,640
2016-05-22T13:02:25.030Z,640
2016-05-22T13:03:25.033Z,632
2016-05-22T13:04:25.037Z,636
2016-05-22T13:05:25.054Z,648
2016-05-22T13:06:25.074Z,708
2016-05-22T13:07:24.920Z,792
2016-05-22T13:08:24.923Z,872
2016-05-22T13:09:25.098Z,948
2016-05-22T13:10:24.943Z,1032
2016-05-22T13:11:24.945Z,1068
2016-05-22T13:12:24.948Z,988
2016-05-22T13:13:25.701Z,936
2016-05-22T13:14:25.126Z,896
2016-05-22T13:15:25.114Z,816
2016-05-22T13:16:27.787Z,784
2016-05-22T13:17:25.134Z,792
2016-05-22T13:18:25.137Z,820
2016-05-22T13:19:25.155Z,816
2016-05-22T13:20:25.002Z,820
2016-05-22T13:21:25.161Z,848
2016-05-22T13:22:25.038Z,864
2016-05-22T13:23:25.181Z,852
2016-05-22T13:24:25.216Z,888
2016-05-22T13:25:25.203Z,876
2016-05-22T13:26:25.189Z,800
2016-05-22T13:27:25.207Z,776
2016-05-22T13:28:25.649Z,748
2016-05-22T13:29:25.213Z,700
2016-05-22T13:30:25.246Z,700
2016-05-22T13:31:27.719Z,736
2016-05-22T13:32:39.190Z,764
2016-05-22T13:33:25.240Z,780
2016-05-22T13:34:25.258Z,832
2016-05-22T13:35:25.260Z,868
2016-05-22T13:36:25.279Z,896
2016-05-22T13:37:25.281Z,904
2016-05-22T13:38:25.285Z,888
2016-05-22T13:39:25.146Z,856
2016-05-22T13:40:25.290Z,852
2016-05-22T13:41:25.151Z,816
2016-05-22T13:42:25.154Z,832
2016-05-22T13:43:25.189Z,924
2016-05-22T13:44:25.331Z,928
2016-05-22T13:45:25.335Z,820